Time;durP1;ratioP1;P1;durP2;ratioP2;P2;SDS_P1;SDS_P2;PMS_P1;PMS_P2;Temp;Humidity;BMP_temperature;BMP_pressure;BME280_temperature;BME280_humidity;BME280_pressure;Samples;Min_cycle;Max_cycle;Signal;HPM_P1;HPM_P2
2022/08/08 00:01:37;;;;;;;;;;;12.80;99.90;;;;;;5083230;28;20410;-60
2022/08/08 00:04:11;;;;;;;;;;;12.80;99.90;;;;;;5079945;28;19920;-60
2022/08/08 00:06:55;;;;;;;;;;;12.70;99.90;;;;;;5080456;28;19920;-61
2022/08/08 00:09:24;;;;;;;;;;;12.70;99.90;;;;;;5086245;28;20354;-60
2022/08/08 00:11:55;;;;;;;;;;;12.70;99.90;;;;;;5085463;28;19920;-61
2022/08/08 00:14:47;;;;;;;;;;;12.70;99.90;;;;;;5084552;28;19962;-61
2022/08/08 00:17:19;;;;;;;;;;;12.70;99.90;;;;;;5072071;28;20375;-62
2022/08/08 00:19:49;;;;;;;;;;;12.60;99.90;;;;;;5078633;28;19981;-61
2022/08/08 00:22:18;;;;;;;;;;;12.70;99.90;;;;;;5086300;28;20383;-61
2022/08/08 00:24:49;;;;;;;;;;;12.60;99.90;;;;;;5087821;28;20422;-61
2022/08/08 00:27:16;;;;;;;;;;;12.60;99.90;;;;;;5084424;28;20378;-60
2022/08/08 00:29:45;;;;;;;;;;;12.50;99.90;;;;;;5087186;28;19928;-61
2022/08/08 00:32:36;;;;;;;;;;;12.50;99.90;;;;;;5077365;28;19920;-62
2022/08/08 00:35:11;;;;;;;;;;;12.50;99.90;;;;;;5049060;28;19965;-62
2022/08/08 00:37:39;;;;;;;;;;;12.40;99.90;;;;;;5080578;28;20335;-62
2022/08/08 00:40:04;;;;;;;;;;;12.30;99.90;;;;;;5086187;28;19927;-60
2022/08/08 00:42:30;;;;;;;;;;;12.30;99.90;;;;;;5082853;28;19920;-60
2022/08/08 00:45:01;;;;;;;;;;;12.30;99.90;;;;;;5087496;28;20015;-60
2022/08/08 00:47:40;;;;;;;;;;;12.30;99.90;;;;;;5083288;28;19920;-60
2022/08/08 00:50:28;;;;;;;;;;;12.30;99.90;;;;;;5085233;28;19927;-62
2022/08/08 00:53:12;;;;;;;;;;;12.30;99.90;;;;;;5063506;28;19928;-61
2022/08/08 00:55:56;;;;;;;;;;;12.30;99.90;;;;;;5093737;28;19924;-60
2022/08/08 00:58:25;;;;;;;;;;;12.20;99.90;;;;;;5086426;28;19924;-62
2022/08/08 01:00:50;;;;;;;;;;;12.20;99.90;;;;;;5093072;28;19924;-61
2022/08/08 01:03:47;;;;;;;;;;;12.20;99.90;;;;;;5087026;28;19924;-60
2022/08/08 01:06:15;;;;;;;;;;;12.10;99.90;;;;;;5086759;28;20015;-61
2022/08/08 01:08:59;;;;;;;;;;;12.00;99.90;;;;;;5092125;28;20000;-60
2022/08/08 01:11:39;;;;;;;;;;;12.00;99.90;;;;;;5092163;28;19956;-60
2022/08/08 01:14:14;;;;;;;;;;;11.90;99.90;;;;;;5087196;28;19924;-61
2022/08/08 01:16:59;;;;;;;;;;;11.90;99.90;;;;;;5089923;28;19965;-60
2022/08/08 01:19:27;;;;;;;;;;;11.90;99.90;;;;;;5083287;28;19920;-61
2022/08/08 01:21:55;;;;;;;;;;;11.90;99.90;;;;;;5082103;28;20482;-60
2022/08/08 01:24:30;;;;;;;;;;;11.90;99.90;;;;;;5085680;28;20165;-61
2022/08/08 01:27:02;;;;;;;;;;;11.90;99.90;;;;;;5093864;28;19963;-60
2022/08/08 01:29:34;;;;;;;;;;;11.90;99.90;;;;;;5092068;28;19920;-61
2022/08/08 01:32:19;;;;;;;;;;;11.90;99.90;;;;;;5089293;28;19920;-60
2022/08/08 01:35:02;;;;;;;;;;;11.80;99.90;;;;;;5086208;28;19931;-61
2022/08/08 01:37:46;;;;;;;;;;;11.80;99.90;;;;;;5085641;28;20307;-60
2022/08/08 01:40:20;;;;;;;;;;;11.70;99.90;;;;;;5091149;28;20523;-61
2022/08/08 01:42:52;;;;;;;;;;;11.70;99.90;;;;;;5087289;28;19920;-60
2022/08/08 01:45:29;;;;;;;;;;;11.70;99.90;;;;;;5089704;28;20346;-61
2022/08/08 01:48:24;;;;;;;;;;;11.70;99.90;;;;;;5086042;28;19920;-60
2022/08/08 01:51:08;;;;;;;;;;;11.70;99.90;;;;;;5074116;28;20005;-60
2022/08/08 01:53:43;;;;;;;;;;;11.60;99.90;;;;;;5083347;28;20355;-60
2022/08/08 01:56:11;;;;;;;;;;;11.60;99.90;;;;;;5084197;28;20397;-60
2022/08/08 01:58:37;;;;;;;;;;;11.60;99.90;;;;;;5085455;28;19930;-60
2022/08/08 02:01:08;;;;;;;;;;;11.60;99.90;;;;;;5091763;28;19924;-60
2022/08/08 02:03:52;;;;;;;;;;;11.60;99.90;;;;;;5081660;28;20353;-61
2022/08/08 02:06:20;;;;;;;;;;;11.60;99.90;;;;;;5089546;28;20360;-60
2022/08/08 02:09:04;;;;;;;;;;;11.60;99.90;;;;;;5089963;28;19920;-61
2022/08/08 02:11:37;;;;;;;;;;;11.50;99.90;;;;;;5091074;28;19924;-60
2022/08/08 02:14:21;;;;;;;;;;;11.50;99.90;;;;;;5088991;28;19949;-61
2022/08/08 02:16:46;;;;;;;;;;;11.50;99.90;;;;;;5090245;28;19924;-61
2022/08/08 02:19:26;;;;;;;;;;;11.40;99.90;;;;;;5075968;28;19925;-60
2022/08/08 02:22:30;;;;;;;;;;;11.40;99.90;;;;;;5086027;28;20265;-61
2022/08/08 02:24:55;;;;;;;;;;;11.40;99.90;;;;;;5085929;28;19924;-60
2022/08/08 02:27:41;;;;;;;;;;;11.40;99.90;;;;;;5088754;28;19946;-60
2022/08/08 02:30:09;;;;;;;;;;;11.50;99.90;;;;;;5087587;28;20022;-60
2022/08/08 02:32:37;;;;;;;;;;;11.40;99.90;;;;;;5088083;28;19928;-60
2022/08/08 02:35:26;;;;;;;;;;;11.40;99.90;;;;;;5089286;28;19946;-60
2022/08/08 02:38:10;;;;;;;;;;;11.40;99.90;;;;;;5078685;28;19962;-61
2022/08/08 02:40:48;;;;;;;;;;;11.40;99.90;;;;;;5084585;28;19935;-60
2022/08/08 02:43:25;;;;;;;;;;;11.40;99.90;;;;;;5087585;28;20316;-60
2022/08/08 02:46:00;;;;;;;;;;;11.40;99.90;;;;;;5085582;28;19924;-60
2022/08/08 02:48:38;;;;;;;;;;;11.30;99.90;;;;;;5089230;28;20406;-61
2022/08/08 02:51:15;;;;;;;;;;;11.40;99.90;;;;;;5087265;28;19924;-61
2022/08/08 02:53:43;;;;;;;;;;;11.40;99.90;;;;;;5085349;28;19920;-61
2022/08/08 02:56:27;;;;;;;;;;;11.40;99.90;;;;;;5078454;28;19931;-60
2022/08/08 02:58:52;;;;;;;;;;;11.40;99.90;;;;;;5086521;28;19977;-61
2022/08/08 03:01:39;;;;;;;;;;;11.50;99.90;;;;;;5087197;28;19920;-60
2022/08/08 03:04:32;;;;;;;;;;;11.40;99.90;;;;;;5082127;28;20420;-61
2022/08/08 03:07:16;;;;;;;;;;;11.40;99.90;;;;;;5079587;28;20716;-60
2022/08/08 03:10:14;;;;;;;;;;;11.30;99.90;;;;;;5086310;28;19966;-60
2022/08/08 03:12:42;;;;;;;;;;;11.30;99.90;;;;;;5086762;28;19928;-60
2022/08/08 03:15:13;;;;;;;;;;;11.20;99.90;;;;;;5088545;28;19927;-61
2022/08/08 03:17:46;;;;;;;;;;;11.10;99.90;;;;;;5088589;28;19925;-61
2022/08/08 03:20:14;;;;;;;;;;;11.10;99.90;;;;;;5086318;28;19920;-60
2022/08/08 03:22:44;;;;;;;;;;;11.20;99.90;;;;;;5087676;28;19920;-60
2022/08/08 03:25:10;;;;;;;;;;;11.10;99.90;;;;;;5088948;28;19920;-60
2022/08/08 03:27:40;;;;;;;;;;;11.10;99.90;;;;;;5089184;28;20404;-60
2022/08/08 03:30:07;;;;;;;;;;;11.10;99.90;;;;;;5084610;28;19943;-61
2022/08/08 03:35:18;;;;;;;;;;;11.20;99.90;;;;;;5086177;28;19924;-60
2022/08/08 03:37:44;;;;;;;;;;;11.20;99.90;;;;;;5088099;28;19939;-60
2022/08/08 03:40:09;;;;;;;;;;;11.10;99.90;;;;;;5091022;28;20419;-60
2022/08/08 03:42:36;;;;;;;;;;;11.10;99.90;;;;;;5087400;28;19920;-60
2022/08/08 03:45:10;;;;;;;;;;;11.10;99.90;;;;;;5083771;28;19924;-61
2022/08/08 03:47:36;;;;;;;;;;;11.00;99.90;;;;;;5082779;28;19935;-60
2022/08/08 03:50:01;;;;;;;;;;;11.00;99.90;;;;;;5087493;28;19924;-60
2022/08/08 03:52:28;;;;;;;;;;;11.10;99.90;;;;;;5086181;28;19920;-60
2022/08/08 03:54:54;;;;;;;;;;;11.10;99.90;;;;;;5085812;28;19971;-61
2022/08/08 03:57:19;;;;;;;;;;;11.00;99.90;;;;;;5085718;28;19967;-60
2022/08/08 03:59:45;;;;;;;;;;;11.00;99.90;;;;;;5087309;28;20050;-60
2022/08/08 04:02:14;;;;;;;;;;;11.00;99.90;;;;;;5085587;28;19973;-60
2022/08/08 04:04:40;;;;;;;;;;;11.10;99.90;;;;;;5082238;28;19950;-61
2022/08/08 04:07:05;;;;;;;;;;;11.00;99.90;;;;;;5087666;28;19920;-61
2022/08/08 04:09:31;;;;;;;;;;;11.00;99.90;;;;;;5086610;28;19920;-60
2022/08/08 04:11:58;;;;;;;;;;;11.00;99.90;;;;;;5088385;28;19949;-61
2022/08/08 04:14:24;;;;;;;;;;;11.00;99.90;;;;;;5102648;28;19974;-61
2022/08/08 04:16:49;;;;;;;;;;;11.00;99.90;;;;;;5083219;28;19924;-60
2022/08/08 04:19:15;;;;;;;;;;;11.10;99.90;;;;;;5084384;28;19924;-60
2022/08/08 04:21:40;;;;;;;;;;;11.10;99.90;;;;;;5085683;28;20415;-60
2022/08/08 04:24:05;;;;;;;;;;;11.10;99.90;;;;;;5088359;28;20402;-61
2022/08/08 04:26:31;;;;;;;;;;;11.10;99.90;;;;;;5086437;28;19923;-61
2022/08/08 04:28:56;;;;;;;;;;;11.10;99.90;;;;;;5089839;28;20021;-61
2022/08/08 04:31:22;;;;;;;;;;;11.10;99.90;;;;;;5085212;28;19927;-60
2022/08/08 04:33:47;;;;;;;;;;;11.10;99.90;;;;;;5083345;28;19931;-60
2022/08/08 04:36:13;;;;;;;;;;;11.10;99.90;;;;;;5083950;28;19920;-61
2022/08/08 04:38:38;;;;;;;;;;;11.10;99.90;;;;;;5085250;28;19924;-61
2022/08/08 04:41:04;;;;;;;;;;;11.10;99.90;;;;;;5088087;28;19956;-61
2022/08/08 04:43:29;;;;;;;;;;;11.10;99.90;;;;;;5088054;28;19931;-61
2022/08/08 04:45:55;;;;;;;;;;;11.20;99.90;;;;;;5084166;28;20342;-60
2022/08/08 04:48:20;;;;;;;;;;;11.20;99.90;;;;;;5081852;28;19964;-60
2022/08/08 04:50:46;;;;;;;;;;;11.20;99.90;;;;;;5086879;28;20394;-60
2022/08/08 04:53:11;;;;;;;;;;;11.20;99.90;;;;;;5087030;28;19976;-61
2022/08/08 04:55:37;;;;;;;;;;;11.10;99.90;;;;;;5088861;28;19931;-60
2022/08/08 04:58:03;;;;;;;;;;;11.10;99.90;;;;;;5087110;28;19924;-60
2022/08/08 05:00:28;;;;;;;;;;;11.10;99.90;;;;;;5083886;28;19920;-61
2022/08/08 05:02:54;;;;;;;;;;;11.10;99.90;;;;;;5082765;28;19928;-61
2022/08/08 05:05:19;;;;;;;;;;;11.10;99.90;;;;;;5082542;28;19924;-61
2022/08/08 05:07:45;;;;;;;;;;;11.10;99.90;;;;;;5083493;28;20355;-60
2022/08/08 05:10:11;;;;;;;;;;;11.10;99.90;;;;;;5079859;28;19994;-60
2022/08/08 05:12:36;;;;;;;;;;;11.10;99.90;;;;;;5087762;28;20439;-61
2022/08/08 05:15:02;;;;;;;;;;;11.10;99.90;;;;;;5085222;28;19922;-61
2022/08/08 05:17:27;;;;;;;;;;;11.10;99.90;;;;;;5085383;28;19970;-61
2022/08/08 05:19:53;;;;;;;;;;;11.20;99.90;;;;;;5080966;28;19924;-60
2022/08/08 05:22:18;;;;;;;;;;;11.20;99.90;;;;;;5081284;28;20329;-61
2022/08/08 05:24:44;;;;;;;;;;;11.30;99.90;;;;;;5088789;28;19920;-61
2022/08/08 05:27:09;;;;;;;;;;;11.40;99.90;;;;;;5084063;28;19920;-62
2022/08/08 05:29:35;;;;;;;;;;;11.60;99.90;;;;;;5087010;28;19951;-61
2022/08/08 05:32:00;;;;;;;;;;;11.70;99.90;;;;;;5086352;28;19934;-62
2022/08/08 05:34:31;;;;;;;;;;;11.90;99.90;;;;;;5088615;28;20388;-61
2022/08/08 05:36:58;;;;;;;;;;;12.10;99.90;;;;;;5084131;28;19920;-61
2022/08/08 05:39:24;;;;;;;;;;;12.20;99.90;;;;;;5088190;28;19928;-62
2022/08/08 05:41:50;;;;;;;;;;;12.40;99.90;;;;;;5092875;28;19927;-61
2022/08/08 05:44:19;;;;;;;;;;;12.60;99.90;;;;;;5088192;28;19920;-61
2022/08/08 05:46:45;;;;;;;;;;;12.70;99.90;;;;;;5088135;28;19924;-62
2022/08/08 05:49:12;;;;;;;;;;;12.90;99.90;;;;;;5086695;28;20723;-61
2022/08/08 05:51:39;;;;;;;;;;;13.00;99.90;;;;;;5089189;28;19927;-62
2022/08/08 05:54:05;;;;;;;;;;;13.20;99.90;;;;;;5087787;28;19932;-62
2022/08/08 05:56:35;;;;;;;;;;;13.40;99.90;;;;;;5093085;28;19920;-62
2022/08/08 05:59:04;;;;;;;;;;;13.70;99.90;;;;;;5087622;28;19932;-62
2022/08/08 06:01:30;;;;;;;;;;;13.90;99.90;;;;;;5093702;28;20007;-61
2022/08/08 06:04:00;;;;;;;;;;;14.10;99.90;;;;;;5088204;28;20443;-62
2022/08/08 06:06:27;;;;;;;;;;;14.30;99.90;;;;;;5088880;28;19920;-62
2022/08/08 06:08:54;;;;;;;;;;;14.60;99.90;;;;;;5087462;28;20371;-62
2022/08/08 06:11:19;;;;;;;;;;;14.80;99.90;;;;;;5089536;28;19951;-62
2022/08/08 06:13:46;;;;;;;;;;;15.10;99.90;;;;;;5088938;28;19924;-62
2022/08/08 06:16:12;;;;;;;;;;;15.30;99.90;;;;;;5091198;28;19920;-61
2022/08/08 06:18:38;;;;;;;;;;;15.60;99.90;;;;;;5085767;28;20389;-62
2022/08/08 06:21:04;;;;;;;;;;;15.80;99.90;;;;;;5084129;28;20063;-62
2022/08/08 06:23:29;;;;;;;;;;;16.10;99.90;;;;;;5102901;28;20387;-63
2022/08/08 06:26:03;;;;;;;;;;;16.40;99.90;;;;;;5092734;28;20367;-61
2022/08/08 06:28:52;;;;;;;;;;;16.60;99.90;;;;;;5084244;28;19924;-62
2022/08/08 06:31:21;;;;;;;;;;;16.80;99.90;;;;;;5078427;28;20666;-63
2022/08/08 06:33:53;;;;;;;;;;;17.10;99.90;;;;;;5088676;28;19931;-62
2022/08/08 06:36:25;;;;;;;;;;;17.30;99.90;;;;;;5089626;28;20343;-62
2022/08/08 06:38:54;;;;;;;;;;;17.60;99.90;;;;;;5087629;28;19924;-62
2022/08/08 06:41:21;;;;;;;;;;;17.80;99.90;;;;;;5127566;27;19920;-62
2022/08/08 06:43:50;;;;;;;;;;;18.10;99.90;;;;;;5087464;28;19977;-63
2022/08/08 06:46:15;;;;;;;;;;;18.30;99.90;;;;;;5091272;28;20399;-62
2022/08/08 06:48:41;;;;;;;;;;;18.60;99.90;;;;;;5087308;28;19966;-62
2022/08/08 06:51:06;;;;;;;;;;;18.70;98.60;;;;;;5089966;28;20011;-62
2022/08/08 06:53:33;;;;;;;;;;;19.00;98.00;;;;;;5088185;28;20264;-62
2022/08/08 06:55:58;;;;;;;;;;;19.30;97.20;;;;;;5090109;28;19924;-61
2022/08/08 06:58:24;;;;;;;;;;;19.50;96.40;;;;;;5090906;28;19933;-62
2022/08/08 07:00:50;;;;;;;;;;;19.60;96.20;;;;;;5088020;28;19920;-62
2022/08/08 07:03:26;;;;;;;;;;;19.70;95.10;;;;;;5091280;28;19940;-62
2022/08/08 07:05:53;;;;;;;;;;;19.90;94.60;;;;;;5086682;28;20364;-63
2022/08/08 07:08:22;;;;;;;;;;;20.20;94.30;;;;;;5084586;28;20374;-63
2022/08/08 07:10:48;;;;;;;;;;;20.50;93.80;;;;;;5089819;28;19943;-62
2022/08/08 07:13:16;;;;;;;;;;;20.70;92.20;;;;;;5089995;28;19981;-63
2022/08/08 07:15:50;;;;;;;;;;;20.70;91.90;;;;;;5088879;28;19924;-62
2022/08/08 07:18:22;;;;;;;;;;;21.00;91.10;;;;;;5088148;28;19967;-62
2022/08/08 07:20:50;;;;;;;;;;;21.40;90.20;;;;;;5084679;28;19920;-62
2022/08/08 07:23:21;;;;;;;;;;;21.70;90.60;;;;;;5088884;28;19920;-63
2022/08/08 07:25:48;;;;;;;;;;;21.70;87.70;;;;;;5092933;28;19927;-62
2022/08/08 07:28:14;;;;;;;;;;;21.50;86.10;;;;;;5092057;28;20351;-63
2022/08/08 07:30:41;;;;;;;;;;;22.00;86.20;;;;;;5090839;28;19985;-62
2022/08/08 07:33:10;;;;;;;;;;;21.80;82.60;;;;;;5087322;28;19920;-63
2022/08/08 07:35:39;;;;;;;;;;;21.90;84.80;;;;;;5089585;28;20017;-63
2022/08/08 07:38:05;;;;;;;;;;;22.10;85.00;;;;;;5090212;28;20021;-63
2022/08/08 07:40:34;;;;;;;;;;;22.30;83.80;;;;;;5088424;28;20471;-63
2022/08/08 07:43:00;;;;;;;;;;;22.70;82.10;;;;;;5090709;28;20509;-62
2022/08/08 07:45:26;;;;;;;;;;;23.00;80.30;;;;;;5088181;28;20322;-62
2022/08/08 07:47:53;;;;;;;;;;;23.20;77.90;;;;;;5090482;28;19974;-64
2022/08/08 07:50:20;;;;;;;;;;;23.50;79.20;;;;;;5087489;28;19929;-63
2022/08/08 07:52:46;;;;;;;;;;;23.50;78.50;;;;;;5089945;28;19920;-62
2022/08/08 07:55:16;;;;;;;;;;;23.50;76.80;;;;;;5086928;28;19924;-64
2022/08/08 07:58:00;;;;;;;;;;;23.30;76.30;;;;;;5086260;28;19931;-62
2022/08/08 08:00:39;;;;;;;;;;;23.00;77.70;;;;;;5090787;28;20337;-64
2022/08/08 08:03:06;;;;;;;;;;;22.90;75.40;;;;;;5085306;28;19974;-62
2022/08/08 08:05:35;;;;;;;;;;;22.70;77.30;;;;;;5109260;27;20011;-62
2022/08/08 08:08:05;;;;;;;;;;;22.60;77.80;;;;;;5085301;28;19934;-63
2022/08/08 08:10:32;;;;;;;;;;;22.50;78.20;;;;;;5089823;28;19920;-63
2022/08/08 08:13:19;;;;;;;;;;;22.60;77.20;;;;;;5089066;28;19997;-63
2022/08/08 08:16:00;;;;;;;;;;;23.00;76.20;;;;;;5091459;28;19959;-63
2022/08/08 08:18:28;;;;;;;;;;;23.50;76.60;;;;;;5090983;28;20364;-63
2022/08/08 08:20:54;;;;;;;;;;;24.00;75.40;;;;;;5087734;28;20314;-65
2022/08/08 08:23:19;;;;;;;;;;;24.00;72.80;;;;;;5091724;28;19928;-63
2022/08/08 08:25:45;;;;;;;;;;;24.10;72.90;;;;;;5091261;28;19926;-62
2022/08/08 08:28:10;;;;;;;;;;;24.40;72.40;;;;;;5090509;28;20074;-63
2022/08/08 08:30:37;;;;;;;;;;;24.80;71.40;;;;;;5091306;28;20429;-63
2022/08/08 08:33:02;;;;;;;;;;;24.90;71.40;;;;;;5090916;28;19971;-62
2022/08/08 08:35:28;;;;;;;;;;;24.70;71.00;;;;;;5088767;28;20659;-63
2022/08/08 08:37:53;;;;;;;;;;;24.50;70.30;;;;;;5074722;28;19939;-62
2022/08/08 08:40:20;;;;;;;;;;;24.20;70.60;;;;;;5092039;28;19966;-63
2022/08/08 08:42:46;;;;;;;;;;;24.10;71.40;;;;;;5089437;28;19961;-62
2022/08/08 08:45:11;;;;;;;;;;;23.90;71.40;;;;;;5090134;28;19943;-63
2022/08/08 08:47:38;;;;;;;;;;;23.90;71.00;;;;;;5091664;28;19920;-62
2022/08/08 08:50:03;;;;;;;;;;;23.90;71.80;;;;;;5084428;28;19920;-62
2022/08/08 08:52:29;;;;;;;;;;;23.90;70.90;;;;;;5088749;28;19920;-63
2022/08/08 08:54:55;;;;;;;;;;;23.70;71.50;;;;;;5091304;28;19976;-63
2022/08/08 08:57:21;;;;;;;;;;;23.70;70.00;;;;;;5089243;28;19924;-63
2022/08/08 08:59:48;;;;;;;;;;;23.60;70.90;;;;;;5090087;28;19932;-63
2022/08/08 09:02:23;;;;;;;;;;;23.60;70.80;;;;;;5091699;28;19924;-62
2022/08/08 09:04:51;;;;;;;;;;;23.30;67.70;;;;;;5086986;28;19923;-64
2022/08/08 09:07:18;;;;;;;;;;;24.20;70.80;;;;;;5091641;28;19984;-62
2022/08/08 09:09:52;;;;;;;;;;;24.90;68.00;;;;;;5095666;28;19969;-63
2022/08/08 09:12:19;;;;;;;;;;;25.30;66.10;;;;;;5094062;28;19920;-63
2022/08/08 09:14:45;;;;;;;;;;;26.00;64.60;;;;;;5095133;28;19924;-63
2022/08/08 09:17:11;;;;;;;;;;;26.50;62.10;;;;;;5091033;28;19945;-63
2022/08/08 09:19:36;;;;;;;;;;;26.70;62.30;;;;;;5079102;28;20367;-62
2022/08/08 09:22:03;;;;;;;;;;;27.30;61.10;;;;;;5092147;28;19920;-63
2022/08/08 09:24:30;;;;;;;;;;;28.30;59.80;;;;;;5091955;28;20821;-63
2022/08/08 09:26:59;;;;;;;;;;;28.90;55.80;;;;;;5087217;28;19920;-63
2022/08/08 09:29:24;;;;;;;;;;;29.60;54.10;;;;;;5084449;28;20007;-63
2022/08/08 09:31:56;;;;;;;;;;;29.30;51.10;;;;;;5093601;28;20014;-65
2022/08/08 09:34:23;;;;;;;;;;;28.70;52.00;;;;;;5082675;28;19927;-65
2022/08/08 09:36:54;;;;;;;;;;;28.00;54.60;;;;;;5082528;28;19920;-63
2022/08/08 09:39:20;;;;;;;;;;;27.20;56.50;;;;;;5095445;28;19924;-63
2022/08/08 09:41:55;;;;;;;;;;;26.60;58.50;;;;;;5090938;28;20002;-63
2022/08/08 09:44:39;;;;;;;;;;;26.00;59.20;;;;;;5094031;28;20328;-63
2022/08/08 09:47:06;;;;;;;;;;;25.40;60.20;;;;;;5084060;28;19927;-63
2022/08/08 09:49:32;;;;;;;;;;;24.90;60.90;;;;;;5086887;28;20407;-62
2022/08/08 09:51:58;;;;;;;;;;;24.50;61.80;;;;;;5092660;28;19924;-62
2022/08/08 09:54:26;;;;;;;;;;;24.20;62.20;;;;;;5092694;28;19924;-63
2022/08/08 09:56:54;;;;;;;;;;;24.00;63.10;;;;;;5092667;28;20326;-63
2022/08/08 09:59:24;;;;;;;;;;;23.60;63.30;;;;;;5094079;28;19927;-62
2022/08/08 10:01:51;;;;;;;;;;;23.40;64.50;;;;;;5092812;28;19927;-63
2022/08/08 10:04:18;;;;;;;;;;;23.30;65.20;;;;;;5122837;27;19924;-63
2022/08/08 10:06:46;;;;;;;;;;;23.20;65.50;;;;;;5092416;28;19931;-63
2022/08/08 10:09:11;;;;;;;;;;;23.20;65.70;;;;;;5094703;28;19924;-63
2022/08/08 10:11:37;;;;;;;;;;;23.20;66.00;;;;;;5093982;28;19926;-62
2022/08/08 10:14:03;;;;;;;;;;;23.20;65.90;;;;;;5094496;28;20057;-62
2022/08/08 10:16:36;;;;;;;;;;;23.10;65.30;;;;;;5095194;28;19946;-62
2022/08/08 10:19:02;;;;;;;;;;;23.20;65.20;;;;;;5089755;28;19928;-63
2022/08/08 10:21:30;;;;;;;;;;;23.30;64.00;;;;;;5095581;28;19926;-61
2022/08/08 10:23:58;;;;;;;;;;;23.40;63.90;;;;;;5099205;28;19920;-63
2022/08/08 10:26:24;;;;;;;;;;;23.50;62.00;;;;;;5091964;28;19920;-63
2022/08/08 10:28:55;;;;;;;;;;;23.70;62.10;;;;;;5074128;28;19924;-64
2022/08/08 10:34:16;;;;;;;;;;;23.80;59.60;;;;;;5090416;28;20590;-63
2022/08/08 10:36:42;;;;;;;;;;;24.00;60.00;;;;;;5092210;28;19925;-63
2022/08/08 10:39:08;;;;;;;;;;;24.20;60.10;;;;;;5091037;28;19928;-63
2022/08/08 10:41:35;;;;;;;;;;;24.30;59.60;;;;;;5092294;28;19928;-63
2022/08/08 10:44:01;;;;;;;;;;;24.70;58.10;;;;;;5091314;28;19928;-65
2022/08/08 10:46:26;;;;;;;;;;;24.90;56.80;;;;;;5093742;28;20263;-63
2022/08/08 10:48:55;;;;;;;;;;;25.00;55.40;;;;;;5080932;28;20011;-63
2022/08/08 10:51:25;;;;;;;;;;;25.20;55.90;;;;;;5090715;28;19974;-62
2022/08/08 10:53:53;;;;;;;;;;;25.30;52.00;;;;;;5093191;28;20369;-63
2022/08/08 10:56:19;;;;;;;;;;;25.30;52.40;;;;;;5125721;27;20252;-64
2022/08/08 10:58:45;;;;;;;;;;;25.70;52.10;;;;;;5091564;28;19934;-63
2022/08/08 11:01:11;;;;;;;;;;;25.80;53.60;;;;;;5091460;28;20376;-64
2022/08/08 11:03:44;;;;;;;;;;;26.10;54.90;;;;;;5122574;27;19942;-62
2022/08/08 11:06:10;;;;;;;;;;;26.00;55.40;;;;;;5091473;28;20450;-62
2022/08/08 11:08:35;;;;;;;;;;;26.00;54.40;;;;;;5091902;28;19920;-62
2022/08/08 11:11:05;;;;;;;;;;;25.80;54.70;;;;;;5092979;28;19965;-63
2022/08/08 11:13:59;;;;;;;;;;;25.60;54.00;;;;;;5090467;28;19920;-62
2022/08/08 11:16:26;;;;;;;;;;;25.40;55.10;;;;;;5090393;28;19924;-63
2022/08/08 11:18:53;;;;;;;;;;;25.30;54.80;;;;;;5088502;28;19930;-64
2022/08/08 11:21:19;;;;;;;;;;;25.10;53.70;;;;;;5105325;27;20294;-62
2022/08/08 11:23:45;;;;;;;;;;;24.80;55.10;;;;;;5083258;28;20015;-64
2022/08/08 11:26:16;;;;;;;;;;;24.70;55.10;;;;;;5072562;28;19981;-62
2022/08/08 11:28:43;;;;;;;;;;;24.70;55.60;;;;;;5085752;28;20523;-62
2022/08/08 11:31:13;;;;;;;;;;;24.60;55.20;;;;;;5092244;28;19927;-62
2022/08/08 11:33:39;;;;;;;;;;;24.50;56.30;;;;;;5090230;28;19920;-63
2022/08/08 11:36:05;;;;;;;;;;;24.40;56.70;;;;;;5090716;28;19924;-62
2022/08/08 11:38:31;;;;;;;;;;;24.10;57.70;;;;;;5092356;28;20279;-62
2022/08/08 11:40:56;;;;;;;;;;;24.20;57.60;;;;;;5092114;28;19920;-62
2022/08/08 11:43:23;;;;;;;;;;;24.20;58.00;;;;;;5091782;28;20354;-62
2022/08/08 11:45:50;;;;;;;;;;;24.30;58.00;;;;;;5090868;28;20362;-62
2022/08/08 11:48:16;;;;;;;;;;;24.30;57.90;;;;;;5091379;28;19966;-62
2022/08/08 11:50:42;;;;;;;;;;;24.20;57.30;;;;;;5090197;28;20038;-62
2022/08/08 11:53:08;;;;;;;;;;;24.10;58.30;;;;;;5091027;28;19931;-63
2022/08/08 11:55:34;;;;;;;;;;;24.30;58.20;;;;;;5092310;28;19928;-62
2022/08/08 11:58:08;;;;;;;;;;;24.40;58.80;;;;;;5089821;28;21228;-62
2022/08/08 12:00:42;;;;;;;;;;;24.50;58.70;;;;;;5091760;28;19970;-62
2022/08/08 12:03:14;;;;;;;;;;;24.40;58.20;;;;;;5085232;28;19961;-62
2022/08/08 12:05:39;;;;;;;;;;;24.50;58.70;;;;;;5089689;28;20325;-63
2022/08/08 12:08:05;;;;;;;;;;;24.60;58.40;;;;;;5090446;28;19923;-63
2022/08/08 12:10:31;;;;;;;;;;;24.50;58.50;;;;;;5092684;28;20465;-63
2022/08/08 12:12:59;;;;;;;;;;;24.70;58.70;;;;;;5091122;28;20376;-62
2022/08/08 12:15:29;;;;;;;;;;;24.50;57.40;;;;;;5091419;28;19924;-62
2022/08/08 12:17:55;;;;;;;;;;;24.50;58.10;;;;;;5090303;28;19924;-63
2022/08/08 12:20:21;;;;;;;;;;;24.80;58.40;;;;;;5088948;28;19927;-64
2022/08/08 12:22:51;;;;;;;;;;;25.10;58.40;;;;;;5087881;28;20454;-63
2022/08/08 12:25:21;;;;;;;;;;;25.10;57.90;;;;;;5071649;28;19924;-62
2022/08/08 12:27:46;;;;;;;;;;;25.40;58.40;;;;;;5076685;28;19924;-63
2022/08/08 12:30:12;;;;;;;;;;;25.30;57.60;;;;;;5089965;28;20014;-63
2022/08/08 12:32:46;;;;;;;;;;;25.20;57.40;;;;;;5091571;28;19955;-63
2022/08/08 12:35:19;;;;;;;;;;;25.30;57.90;;;;;;5088540;28;19920;-64
2022/08/08 12:37:46;;;;;;;;;;;25.10;58.20;;;;;;5082189;28;20015;-61
2022/08/08 12:40:13;;;;;;;;;;;25.00;58.20;;;;;;5073612;28;19920;-62
2022/08/08 12:42:45;;;;;;;;;;;25.00;58.40;;;;;;5093452;28;19956;-64
2022/08/08 12:45:11;;;;;;;;;;;25.10;58.30;;;;;;5094732;28;20033;-62
2022/08/08 12:47:36;;;;;;;;;;;25.00;59.00;;;;;;5096059;28;19924;-62
2022/08/08 12:50:02;;;;;;;;;;;25.00;59.40;;;;;;5091382;28;19920;-62
2022/08/08 12:52:30;;;;;;;;;;;24.90;59.60;;;;;;5091503;28;19927;-63
2022/08/08 12:55:06;;;;;;;;;;;24.90;59.30;;;;;;5076155;28;19966;-61
2022/08/08 12:57:31;;;;;;;;;;;24.80;59.80;;;;;;5078637;28;19930;-63
2022/08/08 12:59:57;;;;;;;;;;;24.80;60.00;;;;;;5094424;28;19998;-62
2022/08/08 13:02:24;;;;;;;;;;;24.80;60.00;;;;;;5093450;28;20345;-62
2022/08/08 13:04:50;;;;;;;;;;;24.70;60.10;;;;;;5093118;28;19924;-62
2022/08/08 13:07:16;;;;;;;;;;;24.70;60.00;;;;;;5091832;28;20444;-62
2022/08/08 13:09:46;;;;;;;;;;;24.60;60.30;;;;;;5094609;28;19919;-62
2022/08/08 13:12:22;;;;;;;;;;;24.50;60.50;;;;;;5094725;28;19920;-62
2022/08/08 13:14:49;;;;;;;;;;;24.50;60.50;;;;;;5094543;28;20022;-62
2022/08/08 13:17:15;;;;;;;;;;;24.30;60.70;;;;;;5095132;28;19969;-61
2022/08/08 13:19:45;;;;;;;;;;;24.20;61.10;;;;;;5092758;28;19928;-62
2022/08/08 13:22:13;;;;;;;;;;;24.00;61.50;;;;;;5093145;28;20398;-62
2022/08/08 13:24:39;;;;;;;;;;;23.80;61.70;;;;;;5090127;28;19972;-62
2022/08/08 13:27:07;;;;;;;;;;;23.70;62.10;;;;;;5094915;28;20587;-63
2022/08/08 13:29:33;;;;;;;;;;;23.50;62.20;;;;;;5093338;28;19926;-62
2022/08/08 13:32:01;;;;;;;;;;;23.40;62.80;;;;;;5079530;28;20006;-63
2022/08/08 13:34:26;;;;;;;;;;;23.30;63.00;;;;;;5093497;28;20310;-64
2022/08/08 13:36:52;;;;;;;;;;;23.30;63.00;;;;;;5094540;28;19927;-62
2022/08/08 13:39:18;;;;;;;;;;;23.20;62.90;;;;;;5095331;28;19935;-63
2022/08/08 13:41:45;;;;;;;;;;;23.20;63.00;;;;;;5097761;28;19923;-63
2022/08/08 13:44:11;;;;;;;;;;;23.30;63.00;;;;;;5090578;28;20730;-63
2022/08/08 13:46:37;;;;;;;;;;;23.30;63.30;;;;;;5091676;28;19993;-63
2022/08/08 13:49:05;;;;;;;;;;;23.30;62.90;;;;;;5091664;28;19963;-63
2022/08/08 13:51:30;;;;;;;;;;;23.30;62.90;;;;;;5089841;28;19920;-62
2022/08/08 13:53:56;;;;;;;;;;;23.30;62.70;;;;;;5090886;28;20272;-63
2022/08/08 13:56:37;;;;;;;;;;;23.30;62.80;;;;;;5092303;28;19931;-63
2022/08/08 13:59:04;;;;;;;;;;;23.30;63.20;;;;;;5086226;28;19928;-63
2022/08/08 14:01:30;;;;;;;;;;;23.40;63.30;;;;;;5090371;28;19920;-62
2022/08/08 14:04:00;;;;;;;;;;;23.50;63.40;;;;;;5093944;28;19924;-64
2022/08/08 14:06:26;;;;;;;;;;;23.40;63.10;;;;;;5117078;27;19921;-62
2022/08/08 14:08:52;;;;;;;;;;;23.50;63.20;;;;;;5093537;28;19928;-63
2022/08/08 14:11:19;;;;;;;;;;;23.60;63.10;;;;;;5095029;28;20326;-62
2022/08/08 14:13:45;;;;;;;;;;;23.70;62.40;;;;;;5088901;28;19997;-63
2022/08/08 14:16:11;;;;;;;;;;;23.80;61.70;;;;;;5123853;27;20015;-62
2022/08/08 14:18:37;;;;;;;;;;;23.90;61.40;;;;;;5090346;28;20298;-62
2022/08/08 14:21:05;;;;;;;;;;;24.40;60.40;;;;;;5090506;28;19965;-62
2022/08/08 14:23:40;;;;;;;;;;;24.50;60.10;;;;;;5092131;28;20011;-62
2022/08/08 14:26:06;;;;;;;;;;;24.60;59.80;;;;;;5090652;28;19920;-62
2022/08/08 14:28:32;;;;;;;;;;;24.50;59.20;;;;;;5089914;28;19927;-63
2022/08/08 14:31:07;;;;;;;;;;;24.50;59.50;;;;;;5091622;28;20383;-64
2022/08/08 14:33:33;;;;;;;;;;;24.50;60.40;;;;;;5093715;28;19924;-62
2022/08/08 14:36:02;;;;;;;;;;;24.70;59.80;;;;;;5094795;28;20010;-62